06:55
Airports
History
Links
Donate
Help me keep this website running!
Information on this page is community maintained and may be outdated or inaccurate and is intended for simulator navigating and reference only!
Always use approved charts for navigating.
TNCB
Bonaire Flamingo
Bonaire Flamingo (TNCB)
Kralendijk, Bonaire,
(C)
Lat/Lng:12° 7' 51.77" N / 68° 16' 6.64" W
12.131046 / -68.268511
Elevation:20'ft 6mMSL
ID / ICAO:TNCB
Runways:1
Longest:(10-28) 2,880.7m 9,451ft Asphalt
Controlled:Yes
Distance To
Airport ID:
Airport Radio Frequencies
Tower: 118.7
Nearby VORs <50NM
Nearby NDBs
METARUpdated 09-27-16 05:55 GMT
Altimeter: 29.83
Visibility: 6.2 statute miles
Wind: 10 knots (090°)
Temp: 28°c 82°f
Humidity: 78.9%

METAR: TNCB 270555Z AUTO 09010KT 9999 NSC 28/24 Q1010

(Powered by phpweather)
Runway 10 / 28
Dimensions:2880.7 x 45.1m 9451' x 148'ft
Surface:Asphalt
Edge Lights:Medium intensity
Runway 10 [A]Runway 28 [B]
Heading:091°TH 271°TH
Lat:
Lng:
12° 7' 53.19"N
68° 16' 54.3"W
12° 7' 50.34"N
68° 15' 18.98"W
ALS:SSALF
Google Map
Nearby Airports
(C) Curacao Hato 46.9 NM
TNCC (WX) W 274°
(U) PUERTO CUMAREBO 82.7 NM
SVRB WSW 238°
(U) PUNTA BRAVA 93.2 NM
SV04 S 183°
(C) JOSE LEONARDO CHIRINOS 107.6 NM
SVCR (WX) WSW 242°
(C) GENERAL BARTOLOME SALOM INTL 114.8 NM
SVPC (WX) S 173°
(C) LA BANANERA 114.9 NM
SVWB S 186°
(C) REINA BEATRIX INTL 120.6 NM
TNCA (WX) WNW 282°
VFR Chart
Flight Planning at SkyVector.com